Terminal Aerodrome Forecast
Issued by NWS Shreveport, LA

Home | Current Version | Previous Version | Text Only | Print | Product List | Glossary On
Versions: 1 2 3 4 5 6 7 8 9 10 11 12 13 14 15 16 17 18 19
000
FTUS44 KSHV 051720
TAFTXK
TAF
KTXK 051720Z 0518/0618 07006KT P6SM OVC015
     FM052200 06004KT 5SM -RA BR OVC005
     FM060900 29006KT 4SM -DZ BR OVC003
     FM061600 30006KT P6SM OVC009=

USA.gov is the U.S. government's official web portal to all federal, state and local government web resources and services.